KABR

Aberdeen Regional Airport

Aberdeen, South Dakota, USA
METAR KABR 211953Z AUTO 02007KT 10SM OVC110 00/M04 A3003 RMK AO2 SLP183 T00001039
Observed Flight Rules
Jan-21 @ 19:53 UTC (32 minutes ago) Visual Flight Rules
Wind Visibility Clouds
20° at 7 knots 10 miles
  • Overcast at 11,000' AGL
Temperatures Readings
Current 0°C / 32°F
Dewpoint -4°C / 25°F
Humidity 75%
Altimeter 30.03" Hg
Pressure 1018.3 hPa
Elevation 397
METAR KABR 211953Z AUTO 02007KT 10SM OVC110 00/M04 A3003 RMK AO2 SLP183 T00001039
Observed Flight Rules
Jan-21 @ 19:53 UTC
(32 minutes ago)
VFR
Wind Visibility
20° at 7 knots 10 miles
Clouds
  • Overcast at 11,000' AGL
Temperature Dewpoint
0°C / 32°F -4°C / 25°F
Humidity Altimeter Pressure
75% 30.03" Hg 1018.3 hPa